sensor_id;sensor_type;location;lat;lon;timestamp;P1;durP1;ratioP1;P2;durP2;ratioP2
66143;SDS011;52947;50.842;6.084;2023-09-18T00:02:09;12.52;;;3.60;;
66143;SDS011;52947;50.842;6.084;2023-09-18T00:04:37;11.93;;;3.75;;
66143;SDS011;52947;50.842;6.084;2023-09-18T00:07:05;13.23;;;4.00;;
66143;SDS011;52947;50.842;6.084;2023-09-18T00:09:33;12.00;;;3.92;;
66143;SDS011;52947;50.842;6.084;2023-09-18T00:12:01;7.80;;;4.18;;
66143;SDS011;52947;50.842;6.084;2023-09-18T00:14:28;7.63;;;3.58;;
66143;SDS011;52947;50.842;6.084;2023-09-18T00:16:58;18.23;;;4.05;;
66143;SDS011;52947;50.842;6.084;2023-09-18T00:19:27;13.05;;;3.95;;
66143;SDS011;52947;50.842;6.084;2023-09-18T00:21:55;13.52;;;3.78;;
66143;SDS011;52947;50.842;6.084;2023-09-18T00:24:22;10.75;;;3.67;;
66143;SDS011;52947;50.842;6.084;2023-09-18T00:26:51;15.13;;;4.40;;
66143;SDS011;52947;50.842;6.084;2023-09-18T00:29:19;10.15;;;4.43;;
66143;SDS011;52947;50.842;6.084;2023-09-18T00:31:48;16.67;;;4.55;;
66143;SDS011;52947;50.842;6.084;2023-09-18T00:34:17;12.95;;;3.65;;
66143;SDS011;52947;50.842;6.084;2023-09-18T00:36:45;14.02;;;4.38;;
66143;SDS011;52947;50.842;6.084;2023-09-18T00:39:13;11.05;;;3.78;;
66143;SDS011;52947;50.842;6.084;2023-09-18T00:41:42;9.82;;;3.80;;
66143;SDS011;52947;50.842;6.084;2023-09-18T00:44:10;15.87;;;4.10;;
66143;SDS011;52947;50.842;6.084;2023-09-18T00:46:38;16.13;;;3.83;;
66143;SDS011;52947;50.842;6.084;2023-09-18T00:49:06;9.48;;;3.67;;
66143;SDS011;52947;50.842;6.084;2023-09-18T00:51:35;11.80;;;4.23;;
66143;SDS011;52947;50.842;6.084;2023-09-18T00:54:03;9.65;;;3.97;;
66143;SDS011;52947;50.842;6.084;2023-09-18T00:56:32;12.60;;;4.33;;
66143;SDS011;52947;50.842;6.084;2023-09-18T00:59:00;11.15;;;4.18;;
66143;SDS011;52947;50.842;6.084;2023-09-18T01:03:57;10.75;;;4.03;;
66143;SDS011;52947;50.842;6.084;2023-09-18T01:06:25;13.13;;;4.40;;
66143;SDS011;52947;50.842;6.084;2023-09-18T01:08:58;12.20;;;4.03;;
66143;SDS011;52947;50.842;6.084;2023-09-18T01:11:29;13.55;;;3.92;;
66143;SDS011;52947;50.842;6.084;2023-09-18T01:14:07;17.17;;;4.40;;
66143;SDS011;52947;50.842;6.084;2023-09-18T01:16:44;9.70;;;4.20;;
66143;SDS011;52947;50.842;6.084;2023-09-18T01:19:17;10.35;;;3.80;;
66143;SDS011;52947;50.842;6.084;2023-09-18T01:22:02;8.85;;;4.00;;
66143;SDS011;52947;50.842;6.084;2023-09-18T01:24:32;7.47;;;3.80;;
66143;SDS011;52947;50.842;6.084;2023-09-18T01:27:00;10.90;;;4.40;;
66143;SDS011;52947;50.842;6.084;2023-09-18T01:29:29;10.63;;;3.55;;
66143;SDS011;52947;50.842;6.084;2023-09-18T01:31:57;9.13;;;3.92;;
66143;SDS011;52947;50.842;6.084;2023-09-18T01:34:25;11.90;;;4.10;;
66143;SDS011;52947;50.842;6.084;2023-09-18T01:36:58;9.38;;;3.72;;
66143;SDS011;52947;50.842;6.084;2023-09-18T01:39:27;13.80;;;4.07;;
66143;SDS011;52947;50.842;6.084;2023-09-18T01:41:59;9.43;;;3.55;;
66143;SDS011;52947;50.842;6.084;2023-09-18T01:44:29;9.43;;;4.10;;
66143;SDS011;52947;50.842;6.084;2023-09-18T01:46:58;10.20;;;3.75;;
66143;SDS011;52947;50.842;6.084;2023-09-18T01:49:27;8.48;;;3.92;;
66143;SDS011;52947;50.842;6.084;2023-09-18T01:51:55;9.68;;;3.50;;
66143;SDS011;52947;50.842;6.084;2023-09-18T01:54:23;9.45;;;3.78;;
66143;SDS011;52947;50.842;6.084;2023-09-18T01:56:51;12.48;;;3.97;;
66143;SDS011;52947;50.842;6.084;2023-09-18T01:59:21;7.78;;;3.78;;
66143;SDS011;52947;50.842;6.084;2023-09-18T02:01:50;11.80;;;3.85;;
66143;SDS011;52947;50.842;6.084;2023-09-18T02:04:20;13.80;;;4.20;;
66143;SDS011;52947;50.842;6.084;2023-09-18T02:07:09;7.03;;;3.20;;
66143;SDS011;52947;50.842;6.084;2023-09-18T02:09:38;7.35;;;3.10;;
66143;SDS011;52947;50.842;6.084;2023-09-18T02:12:06;10.05;;;3.10;;
66143;SDS011;52947;50.842;6.084;2023-09-18T02:14:35;8.88;;;3.10;;
66143;SDS011;52947;50.842;6.084;2023-09-18T02:17:03;13.20;;;3.60;;
66143;SDS011;52947;50.842;6.084;2023-09-18T02:19:31;7.88;;;2.50;;
66143;SDS011;52947;50.842;6.084;2023-09-18T02:21:59;7.87;;;3.00;;
66143;SDS011;52947;50.842;6.084;2023-09-18T02:24:31;8.75;;;3.28;;
66143;SDS011;52947;50.842;6.084;2023-09-18T02:26:58;16.23;;;3.60;;
66143;SDS011;52947;50.842;6.084;2023-09-18T02:29:26;10.15;;;2.88;;
66143;SDS011;52947;50.842;6.084;2023-09-18T02:31:56;11.20;;;2.70;;
66143;SDS011;52947;50.842;6.084;2023-09-18T02:34:24;8.10;;;2.97;;
66143;SDS011;52947;50.842;6.084;2023-09-18T02:36:52;9.15;;;2.22;;
66143;SDS011;52947;50.842;6.084;2023-09-18T02:39:20;10.02;;;2.78;;
66143;SDS011;52947;50.842;6.084;2023-09-18T02:44:18;10.15;;;3.20;;
66143;SDS011;52947;50.842;6.084;2023-09-18T02:46:46;18.33;;;3.00;;
66143;SDS011;52947;50.842;6.084;2023-09-18T02:49:15;8.70;;;3.03;;
66143;SDS011;52947;50.842;6.084;2023-09-18T02:51:43;6.75;;;3.20;;
66143;SDS011;52947;50.842;6.084;2023-09-18T02:54:11;14.95;;;3.45;;
66143;SDS011;52947;50.842;6.084;2023-09-18T02:56:39;7.68;;;3.53;;
66143;SDS011;52947;50.842;6.084;2023-09-18T02:59:07;12.07;;;3.47;;
66143;SDS011;52947;50.842;6.084;2023-09-18T03:01:35;16.15;;;4.15;;
66143;SDS011;52947;50.842;6.084;2023-09-18T03:04:04;13.77;;;3.30;;
66143;SDS011;52947;50.842;6.084;2023-09-18T03:09:02;8.25;;;2.90;;
66143;SDS011;52947;50.842;6.084;2023-09-18T03:11:30;7.80;;;2.75;;
66143;SDS011;52947;50.842;6.084;2023-09-18T03:13:59;6.20;;;2.53;;
66143;SDS011;52947;50.842;6.084;2023-09-18T03:16:26;10.70;;;2.67;;
66143;SDS011;52947;50.842;6.084;2023-09-18T03:18:54;8.18;;;2.97;;
66143;SDS011;52947;50.842;6.084;2023-09-18T03:21:22;5.45;;;2.30;;
66143;SDS011;52947;50.842;6.084;2023-09-18T03:23:51;9.98;;;2.20;;
66143;SDS011;52947;50.842;6.084;2023-09-18T03:26:19;10.70;;;2.20;;
66143;SDS011;52947;50.842;6.084;2023-09-18T03:28:47;5.88;;;2.03;;
66143;SDS011;52947;50.842;6.084;2023-09-18T03:31:16;7.15;;;2.15;;
66143;SDS011;52947;50.842;6.084;2023-09-18T03:33:44;6.90;;;2.00;;
66143;SDS011;52947;50.842;6.084;2023-09-18T03:38:41;7.87;;;2.23;;
66143;SDS011;52947;50.842;6.084;2023-09-18T03:41:10;7.40;;;1.90;;
66143;SDS011;52947;50.842;6.084;2023-09-18T03:43:38;7.45;;;2.22;;
66143;SDS011;52947;50.842;6.084;2023-09-18T03:46:07;6.05;;;2.30;;
66143;SDS011;52947;50.842;6.084;2023-09-18T03:48:42;8.18;;;2.45;;
66143;SDS011;52947;50.842;6.084;2023-09-18T03:51:10;11.87;;;2.23;;
66143;SDS011;52947;50.842;6.084;2023-09-18T03:53:42;7.03;;;2.30;;
66143;SDS011;52947;50.842;6.084;2023-09-18T03:56:11;6.53;;;2.50;;
66143;SDS011;52947;50.842;6.084;2023-09-18T03:58:39;5.90;;;2.17;;
66143;SDS011;52947;50.842;6.084;2023-09-18T04:01:07;7.55;;;2.50;;
66143;SDS011;52947;50.842;6.084;2023-09-18T04:03:35;6.67;;;2.00;;
66143;SDS011;52947;50.842;6.084;2023-09-18T04:06:03;6.97;;;1.90;;
66143;SDS011;52947;50.842;6.084;2023-09-18T04:08:33;4.75;;;2.00;;
66143;SDS011;52947;50.842;6.084;2023-09-18T04:11:01;8.80;;;2.20;;
66143;SDS011;52947;50.842;6.084;2023-09-18T04:13:32;5.45;;;1.83;;
66143;SDS011;52947;50.842;6.084;2023-09-18T04:16:00;5.68;;;1.88;;
66143;SDS011;52947;50.842;6.084;2023-09-18T04:18:30;4.20;;;1.70;;
66143;SDS011;52947;50.842;6.084;2023-09-18T04:20:59;3.92;;;1.70;;
66143;SDS011;52947;50.842;6.084;2023-09-18T04:23:27;3.90;;;1.60;;
66143;SDS011;52947;50.842;6.084;2023-09-18T04:25:55;4.47;;;1.73;;
66143;SDS011;52947;50.842;6.084;2023-09-18T04:28:24;5.13;;;1.33;;
66143;SDS011;52947;50.842;6.084;2023-09-18T04:30:54;5.43;;;1.80;;
66143;SDS011;52947;50.842;6.084;2023-09-18T04:33:22;4.30;;;1.60;;
66143;SDS011;52947;50.842;6.084;2023-09-18T04:35:52;3.90;;;1.80;;
66143;SDS011;52947;50.842;6.084;2023-09-18T04:38:20;4.85;;;1.50;;
66143;SDS011;52947;50.842;6.084;2023-09-18T04:40:48;4.65;;;1.75;;
66143;SDS011;52947;50.842;6.084;2023-09-18T04:43:16;6.30;;;2.03;;
66143;SDS011;52947;50.842;6.084;2023-09-18T04:45:44;4.30;;;1.38;;
66143;SDS011;52947;50.842;6.084;2023-09-18T04:48:15;4.60;;;1.60;;
66143;SDS011;52947;50.842;6.084;2023-09-18T04:50:43;5.88;;;1.40;;
66143;SDS011;52947;50.842;6.084;2023-09-18T04:53:12;4.60;;;1.67;;
66143;SDS011;52947;50.842;6.084;2023-09-18T04:55:40;5.50;;;1.85;;
66143;SDS011;52947;50.842;6.084;2023-09-18T04:58:08;3.83;;;1.75;;
66143;SDS011;52947;50.842;6.084;2023-09-18T05:00:36;5.50;;;1.63;;
66143;SDS011;52947;50.842;6.084;2023-09-18T05:03:04;4.93;;;2.42;;
66143;SDS011;52947;50.842;6.084;2023-09-18T05:05:34;5.40;;;1.80;;
66143;SDS011;52947;50.842;6.084;2023-09-18T05:08:02;4.30;;;1.58;;
66143;SDS011;52947;50.842;6.084;2023-09-18T05:10:33;3.22;;;1.60;;
66143;SDS011;52947;50.842;6.084;2023-09-18T05:13:02;3.80;;;1.35;;
66143;SDS011;52947;50.842;6.084;2023-09-18T05:15:30;2.03;;;1.40;;
66143;SDS011;52947;50.842;6.084;2023-09-18T05:17:59;3.83;;;1.60;;
66143;SDS011;52947;50.842;6.084;2023-09-18T05:20:28;4.53;;;1.52;;
66143;SDS011;52947;50.842;6.084;2023-09-18T05:22:58;3.78;;;1.30;;
66143;SDS011;52947;50.842;6.084;2023-09-18T05:25:28;7.93;;;1.95;;
66143;SDS011;52947;50.842;6.084;2023-09-18T05:27:59;3.30;;;1.70;;
66143;SDS011;52947;50.842;6.084;2023-09-18T05:30:28;6.22;;;2.17;;
66143;SDS011;52947;50.842;6.084;2023-09-18T05:32:57;3.40;;;1.67;;
66143;SDS011;52947;50.842;6.084;2023-09-18T05:35:31;5.25;;;1.83;;
66143;SDS011;52947;50.842;6.084;2023-09-18T05:38:00;5.22;;;1.70;;
66143;SDS011;52947;50.842;6.084;2023-09-18T05:40:28;3.90;;;1.70;;
66143;SDS011;52947;50.842;6.084;2023-09-18T05:42:56;4.35;;;1.80;;
66143;SDS011;52947;50.842;6.084;2023-09-18T05:45:24;3.78;;;1.50;;
66143;SDS011;52947;50.842;6.084;2023-09-18T05:47:53;5.20;;;1.80;;
66143;SDS011;52947;50.842;6.084;2023-09-18T05:50:28;4.82;;;1.52;;
66143;SDS011;52947;50.842;6.084;2023-09-18T05:52:56;5.43;;;1.67;;
66143;SDS011;52947;50.842;6.084;2023-09-18T05:55:27;3.75;;;1.67;;
66143;SDS011;52947;50.842;6.084;2023-09-18T05:57:55;2.53;;;1.63;;
66143;SDS011;52947;50.842;6.084;2023-09-18T06:00:23;5.10;;;1.40;;
66143;SDS011;52947;50.842;6.084;2023-09-18T06:02:52;6.28;;;1.63;;
66143;SDS011;52947;50.842;6.084;2023-09-18T06:05:20;5.35;;;1.30;;
66143;SDS011;52947;50.842;6.084;2023-09-18T06:07:48;5.68;;;1.67;;
66143;SDS011;52947;50.842;6.084;2023-09-18T06:10:17;6.35;;;1.20;;
66143;SDS011;52947;50.842;6.084;2023-09-18T06:12:46;2.92;;;1.38;;
66143;SDS011;52947;50.842;6.084;2023-09-18T06:15:14;4.90;;;1.25;;
66143;SDS011;52947;50.842;6.084;2023-09-18T06:17:42;2.03;;;1.05;;
66143;SDS011;52947;50.842;6.084;2023-09-18T06:22:40;3.23;;;1.40;;
66143;SDS011;52947;50.842;6.084;2023-09-18T06:25:08;4.60;;;1.35;;
66143;SDS011;52947;50.842;6.084;2023-09-18T06:27:37;3.65;;;1.40;;
66143;SDS011;52947;50.842;6.084;2023-09-18T06:30:07;5.50;;;1.50;;
66143;SDS011;52947;50.842;6.084;2023-09-18T06:32:35;3.92;;;1.38;;
66143;SDS011;52947;50.842;6.084;2023-09-18T06:35:04;4.70;;;1.52;;
66143;SDS011;52947;50.842;6.084;2023-09-18T06:37:33;5.03;;;1.38;;
66143;SDS011;52947;50.842;6.084;2023-09-18T06:40:00;2.90;;;1.38;;
66143;SDS011;52947;50.842;6.084;2023-09-18T06:42:30;2.28;;;1.60;;
66143;SDS011;52947;50.842;6.084;2023-09-18T06:45:00;3.53;;;1.17;;
66143;SDS011;52947;50.842;6.084;2023-09-18T06:47:29;3.80;;;1.38;;
66143;SDS011;52947;50.842;6.084;2023-09-18T06:49:57;3.83;;;1.30;;
66143;SDS011;52947;50.842;6.084;2023-09-18T06:52:26;3.75;;;1.20;;
66143;SDS011;52947;50.842;6.084;2023-09-18T06:54:54;4.05;;;1.70;;
66143;SDS011;52947;50.842;6.084;2023-09-18T06:57:24;3.85;;;1.30;;
66143;SDS011;52947;50.842;6.084;2023-09-18T06:59:52;2.55;;;1.38;;
66143;SDS011;52947;50.842;6.084;2023-09-18T07:02:20;4.82;;;1.50;;
66143;SDS011;52947;50.842;6.084;2023-09-18T07:04:49;3.50;;;1.20;;
66143;SDS011;52947;50.842;6.084;2023-09-18T07:07:17;3.58;;;1.40;;
66143;SDS011;52947;50.842;6.084;2023-09-18T07:09:51;4.50;;;1.38;;
66143;SDS011;52947;50.842;6.084;2023-09-18T07:12:31;2.55;;;1.33;;
66143;SDS011;52947;50.842;6.084;2023-09-18T07:15:00;5.18;;;1.60;;
66143;SDS011;52947;50.842;6.084;2023-09-18T07:17:31;5.03;;;1.42;;
66143;SDS011;52947;50.842;6.084;2023-09-18T07:20:00;4.23;;;1.40;;
66143;SDS011;52947;50.842;6.084;2023-09-18T07:22:36;4.82;;;1.88;;
66143;SDS011;52947;50.842;6.084;2023-09-18T07:25:04;6.72;;;1.38;;
66143;SDS011;52947;50.842;6.084;2023-09-18T07:27:33;4.32;;;1.60;;
66143;SDS011;52947;50.842;6.084;2023-09-18T07:30:03;2.80;;;1.42;;
66143;SDS011;52947;50.842;6.084;2023-09-18T07:35:06;2.15;;;1.52;;
66143;SDS011;52947;50.842;6.084;2023-09-18T07:37:35;2.03;;;1.30;;
66143;SDS011;52947;50.842;6.084;2023-09-18T07:40:04;1.95;;;1.40;;
66143;SDS011;52947;50.842;6.084;2023-09-18T07:42:33;4.43;;;1.60;;
66143;SDS011;52947;50.842;6.084;2023-09-18T07:45:01;6.78;;;1.30;;
66143;SDS011;52947;50.842;6.084;2023-09-18T07:47:29;1.45;;;1.10;;
66143;SDS011;52947;50.842;6.084;2023-09-18T07:52:28;2.58;;;1.25;;
66143;SDS011;52947;50.842;6.084;2023-09-18T07:54:58;6.10;;;1.92;;
66143;SDS011;52947;50.842;6.084;2023-09-18T07:57:26;3.35;;;1.90;;
66143;SDS011;52947;50.842;6.084;2023-09-18T07:59:56;4.63;;;1.40;;
66143;SDS011;52947;50.842;6.084;2023-09-18T08:02:25;4.33;;;1.80;;
66143;SDS011;52947;50.842;6.084;2023-09-18T08:04:55;4.63;;;1.65;;
66143;SDS011;52947;50.842;6.084;2023-09-18T08:07:23;2.67;;;1.35;;
66143;SDS011;52947;50.842;6.084;2023-09-18T08:09:53;3.23;;;1.33;;
66143;SDS011;52947;50.842;6.084;2023-09-18T08:12:20;5.57;;;2.10;;
66143;SDS011;52947;50.842;6.084;2023-09-18T08:14:48;2.20;;;1.45;;
66143;SDS011;52947;50.842;6.084;2023-09-18T08:17:16;3.55;;;1.15;;
66143;SDS011;52947;50.842;6.084;2023-09-18T08:19:44;4.32;;;1.35;;
66143;SDS011;52947;50.842;6.084;2023-09-18T08:22:12;3.22;;;1.17;;
66143;SDS011;52947;50.842;6.084;2023-09-18T08:24:43;4.10;;;1.30;;
66143;SDS011;52947;50.842;6.084;2023-09-18T08:29:43;3.70;;;1.13;;
66143;SDS011;52947;50.842;6.084;2023-09-18T08:32:11;3.58;;;1.27;;
66143;SDS011;52947;50.842;6.084;2023-09-18T08:34:39;3.20;;;1.17;;
66143;SDS011;52947;50.842;6.084;2023-09-18T08:37:06;5.38;;;1.20;;
66143;SDS011;52947;50.842;6.084;2023-09-18T08:39:35;4.78;;;1.33;;
66143;SDS011;52947;50.842;6.084;2023-09-18T08:42:04;2.80;;;1.38;;
66143;SDS011;52947;50.842;6.084;2023-09-18T08:44:36;5.63;;;1.27;;
66143;SDS011;52947;50.842;6.084;2023-09-18T08:47:07;3.83;;;1.48;;
66143;SDS011;52947;50.842;6.084;2023-09-18T08:49:36;2.72;;;1.17;;
66143;SDS011;52947;50.842;6.084;2023-09-18T08:54:33;3.22;;;1.35;;
66143;SDS011;52947;50.842;6.084;2023-09-18T08:57:01;3.45;;;1.35;;
66143;SDS011;52947;50.842;6.084;2023-09-18T08:59:33;3.60;;;1.40;;
66143;SDS011;52947;50.842;6.084;2023-09-18T09:02:04;2.10;;;1.30;;
66143;SDS011;52947;50.842;6.084;2023-09-18T09:04:32;4.80;;;1.80;;
66143;SDS011;52947;50.842;6.084;2023-09-18T09:07:00;3.88;;;1.40;;
66143;SDS011;52947;50.842;6.084;2023-09-18T09:09:29;2.13;;;1.40;;
66143;SDS011;52947;50.842;6.084;2023-09-18T09:11:58;4.75;;;2.15;;
66143;SDS011;52947;50.842;6.084;2023-09-18T09:14:26;3.75;;;1.38;;
66143;SDS011;52947;50.842;6.084;2023-09-18T09:16:57;4.22;;;1.40;;
66143;SDS011;52947;50.842;6.084;2023-09-18T09:19:28;3.10;;;1.35;;
66143;SDS011;52947;50.842;6.084;2023-09-18T09:21:57;2.65;;;1.52;;
66143;SDS011;52947;50.842;6.084;2023-09-18T09:24:36;2.65;;;1.27;;
66143;SDS011;52947;50.842;6.084;2023-09-18T09:27:05;1.67;;;1.20;;
66143;SDS011;52947;50.842;6.084;2023-09-18T09:29:34;4.97;;;1.48;;
66143;SDS011;52947;50.842;6.084;2023-09-18T09:32:14;2.75;;;1.50;;
66143;SDS011;52947;50.842;6.084;2023-09-18T09:34:44;4.10;;;1.63;;
66143;SDS011;52947;50.842;6.084;2023-09-18T09:39:47;4.18;;;1.50;;
66143;SDS011;52947;50.842;6.084;2023-09-18T09:42:17;5.80;;;1.75;;
66143;SDS011;52947;50.842;6.084;2023-09-18T09:45:02;2.28;;;1.60;;
66143;SDS011;52947;50.842;6.084;2023-09-18T09:47:35;4.05;;;1.75;;
66143;SDS011;52947;50.842;6.084;2023-09-18T09:50:07;3.03;;;1.50;;
66143;SDS011;52947;50.842;6.084;2023-09-18T09:52:40;2.63;;;1.58;;
66143;SDS011;52947;50.842;6.084;2023-09-18T09:55:24;4.05;;;1.50;;
66143;SDS011;52947;50.842;6.084;2023-09-18T09:57:55;3.05;;;1.33;;
66143;SDS011;52947;50.842;6.084;2023-09-18T10:00:26;3.35;;;1.40;;
66143;SDS011;52947;50.842;6.084;2023-09-18T10:03:01;1.83;;;1.38;;
66143;SDS011;52947;50.842;6.084;2023-09-18T10:05:32;7.15;;;1.50;;
66143;SDS011;52947;50.842;6.084;2023-09-18T10:08:03;6.20;;;1.70;;
66143;SDS011;52947;50.842;6.084;2023-09-18T10:10:35;5.15;;;2.45;;
66143;SDS011;52947;50.842;6.084;2023-09-18T10:13:09;3.55;;;1.70;;
66143;SDS011;52947;50.842;6.084;2023-09-18T10:15:40;1.95;;;1.50;;
66143;SDS011;52947;50.842;6.084;2023-09-18T10:18:24;3.10;;;1.98;;
66143;SDS011;52947;50.842;6.084;2023-09-18T10:20:56;5.07;;;1.63;;
66143;SDS011;52947;50.842;6.084;2023-09-18T10:23:38;4.47;;;1.73;;
66143;SDS011;52947;50.842;6.084;2023-09-18T10:26:14;3.90;;;1.67;;
66143;SDS011;52947;50.842;6.084;2023-09-18T10:28:51;4.93;;;1.58;;
66143;SDS011;52947;50.842;6.084;2023-09-18T10:31:22;2.65;;;1.42;;
66143;SDS011;52947;50.842;6.084;2023-09-18T10:33:52;3.97;;;1.63;;
66143;SDS011;52947;50.842;6.084;2023-09-18T10:36:24;3.13;;;1.55;;
66143;SDS011;52947;50.842;6.084;2023-09-18T10:38:52;2.83;;;1.40;;
66143;SDS011;52947;50.842;6.084;2023-09-18T10:41:25;3.28;;;1.50;;
66143;SDS011;52947;50.842;6.084;2023-09-18T10:43:54;3.45;;;1.20;;
66143;SDS011;52947;50.842;6.084;2023-09-18T10:46:24;1.73;;;1.35;;
66143;SDS011;52947;50.842;6.084;2023-09-18T10:48:54;2.42;;;1.60;;
66143;SDS011;52947;50.842;6.084;2023-09-18T10:51:23;5.18;;;1.80;;
66143;SDS011;52947;50.842;6.084;2023-09-18T10:53:51;2.90;;;1.92;;
66143;SDS011;52947;50.842;6.084;2023-09-18T10:56:19;5.10;;;1.65;;
66143;SDS011;52947;50.842;6.084;2023-09-18T10:58:55;4.47;;;1.73;;
66143;SDS011;52947;50.842;6.084;2023-09-18T11:01:25;4.55;;;1.25;;
66143;SDS011;52947;50.842;6.084;2023-09-18T11:03:58;4.53;;;1.70;;
66143;SDS011;52947;50.842;6.084;2023-09-18T11:06:28;2.85;;;1.60;;
66143;SDS011;52947;50.842;6.084;2023-09-18T11:09:00;2.95;;;1.38;;
66143;SDS011;52947;50.842;6.084;2023-09-18T11:11:34;4.55;;;1.40;;
66143;SDS011;52947;50.842;6.084;2023-09-18T11:14:02;2.85;;;1.40;;
66143;SDS011;52947;50.842;6.084;2023-09-18T11:16:37;6.50;;;1.63;;
66143;SDS011;52947;50.842;6.084;2023-09-18T11:19:11;3.20;;;1.63;;
66143;SDS011;52947;50.842;6.084;2023-09-18T11:21:40;3.05;;;1.50;;
66143;SDS011;52947;50.842;6.084;2023-09-18T11:24:14;2.88;;;1.55;;
66143;SDS011;52947;50.842;6.084;2023-09-18T11:26:45;6.38;;;2.08;;
66143;SDS011;52947;50.842;6.084;2023-09-18T11:29:15;4.03;;;1.20;;
66143;SDS011;52947;50.842;6.084;2023-09-18T11:31:46;5.43;;;1.90;;
66143;SDS011;52947;50.842;6.084;2023-09-18T11:34:19;5.40;;;1.50;;
66143;SDS011;52947;50.842;6.084;2023-09-18T11:36:49;1.60;;;1.38;;
66143;SDS011;52947;50.842;6.084;2023-09-18T11:39:33;2.60;;;1.70;;
66143;SDS011;52947;50.842;6.084;2023-09-18T11:42:07;6.00;;;2.00;;
66143;SDS011;52947;50.842;6.084;2023-09-18T11:44:36;4.88;;;1.50;;
66143;SDS011;52947;50.842;6.084;2023-09-18T11:47:09;5.85;;;1.75;;
66143;SDS011;52947;50.842;6.084;2023-09-18T11:49:49;3.75;;;1.50;;
66143;SDS011;52947;50.842;6.084;2023-09-18T11:52:21;3.53;;;1.70;;
66143;SDS011;52947;50.842;6.084;2023-09-18T11:54:51;1.95;;;1.50;;
66143;SDS011;52947;50.842;6.084;2023-09-18T11:57:21;5.60;;;1.83;;
66143;SDS011;52947;50.842;6.084;2023-09-18T11:59:48;3.05;;;1.60;;
66143;SDS011;52947;50.842;6.084;2023-09-18T12:02:25;2.33;;;1.40;;
66143;SDS011;52947;50.842;6.084;2023-09-18T12:04:58;2.42;;;1.50;;
66143;SDS011;52947;50.842;6.084;2023-09-18T12:07:26;2.67;;;1.60;;
66143;SDS011;52947;50.842;6.084;2023-09-18T12:09:54;3.00;;;1.80;;
66143;SDS011;52947;50.842;6.084;2023-09-18T12:12:22;4.18;;;1.70;;
66143;SDS011;52947;50.842;6.084;2023-09-18T12:14:49;2.00;;;1.45;;
66143;SDS011;52947;50.842;6.084;2023-09-18T12:17:19;3.20;;;1.70;;
66143;SDS011;52947;50.842;6.084;2023-09-18T12:19:51;3.38;;;1.80;;
66143;SDS011;52947;50.842;6.084;2023-09-18T12:22:25;4.82;;;1.80;;
66143;SDS011;52947;50.842;6.084;2023-09-18T12:24:57;2.65;;;1.40;;
66143;SDS011;52947;50.842;6.084;2023-09-18T12:27:40;5.22;;;1.88;;
66143;SDS011;52947;50.842;6.084;2023-09-18T12:30:09;3.95;;;1.35;;
66143;SDS011;52947;50.842;6.084;2023-09-18T12:32:38;3.72;;;1.55;;
66143;SDS011;52947;50.842;6.084;2023-09-18T12:37:38;2.53;;;1.73;;
66143;SDS011;52947;50.842;6.084;2023-09-18T12:40:07;2.55;;;1.40;;
66143;SDS011;52947;50.842;6.084;2023-09-18T12:42:47;3.97;;;1.60;;
66143;SDS011;52947;50.842;6.084;2023-09-18T12:47:44;4.38;;;1.35;;
66143;SDS011;52947;50.842;6.084;2023-09-18T12:50:13;2.63;;;1.50;;
66143;SDS011;52947;50.842;6.084;2023-09-18T12:52:42;2.65;;;1.80;;
66143;SDS011;52947;50.842;6.084;2023-09-18T12:55:20;7.13;;;1.67;;
66143;SDS011;52947;50.842;6.084;2023-09-18T12:57:50;3.90;;;1.42;;
66143;SDS011;52947;50.842;6.084;2023-09-18T13:00:19;3.30;;;1.58;;
66143;SDS011;52947;50.842;6.084;2023-09-18T13:02:49;2.53;;;1.35;;
66143;SDS011;52947;50.842;6.084;2023-09-18T13:05:22;4.05;;;1.60;;
66143;SDS011;52947;50.842;6.084;2023-09-18T13:07:54;2.83;;;1.48;;
66143;SDS011;52947;50.842;6.084;2023-09-18T13:10:23;3.65;;;1.45;;
66143;SDS011;52947;50.842;6.084;2023-09-18T13:12:54;4.75;;;1.65;;
66143;SDS011;52947;50.842;6.084;2023-09-18T13:15:24;2.80;;;1.50;;
66143;SDS011;52947;50.842;6.084;2023-09-18T13:17:54;3.17;;;1.48;;
66143;SDS011;52947;50.842;6.084;2023-09-18T13:20:24;3.95;;;1.63;;
66143;SDS011;52947;50.842;6.084;2023-09-18T13:22:55;2.90;;;1.67;;
66143;SDS011;52947;50.842;6.084;2023-09-18T13:25:25;4.22;;;1.42;;
66143;SDS011;52947;50.842;6.084;2023-09-18T13:27:55;2.03;;;1.50;;
66143;SDS011;52947;50.842;6.084;2023-09-18T13:30:23;3.42;;;1.60;;
66143;SDS011;52947;50.842;6.084;2023-09-18T13:33:00;2.33;;;1.50;;
66143;SDS011;52947;50.842;6.084;2023-09-18T13:35:29;1.83;;;1.45;;
66143;SDS011;52947;50.842;6.084;2023-09-18T13:37:58;5.90;;;1.60;;
66143;SDS011;52947;50.842;6.084;2023-09-18T13:40:26;3.92;;;1.50;;
66143;SDS011;52947;50.842;6.084;2023-09-18T13:42:54;2.40;;;1.55;;
66143;SDS011;52947;50.842;6.084;2023-09-18T13:45:22;3.20;;;1.52;;
66143;SDS011;52947;50.842;6.084;2023-09-18T13:47:51;2.30;;;1.35;;
66143;SDS011;52947;50.842;6.084;2023-09-18T13:50:19;2.30;;;1.50;;
66143;SDS011;52947;50.842;6.084;2023-09-18T13:52:47;5.63;;;1.80;;
66143;SDS011;52947;50.842;6.084;2023-09-18T13:55:16;2.30;;;1.33;;
66143;SDS011;52947;50.842;6.084;2023-09-18T13:57:44;3.15;;;1.55;;
66143;SDS011;52947;50.842;6.084;2023-09-18T14:00:12;3.85;;;1.38;;
66143;SDS011;52947;50.842;6.084;2023-09-18T14:02:41;2.08;;;1.58;;
66143;SDS011;52947;50.842;6.084;2023-09-18T14:05:09;3.72;;;1.50;;
66143;SDS011;52947;50.842;6.084;2023-09-18T14:07:43;6.97;;;1.58;;
66143;SDS011;52947;50.842;6.084;2023-09-18T14:10:11;4.78;;;1.60;;
66143;SDS011;52947;50.842;6.084;2023-09-18T14:12:41;2.60;;;1.50;;
66143;SDS011;52947;50.842;6.084;2023-09-18T14:15:09;3.83;;;1.70;;
66143;SDS011;52947;50.842;6.084;2023-09-18T14:17:38;3.60;;;1.65;;
66143;SDS011;52947;50.842;6.084;2023-09-18T14:20:07;4.05;;;1.50;;
66143;SDS011;52947;50.842;6.084;2023-09-18T14:22:36;4.20;;;1.40;;
66143;SDS011;52947;50.842;6.084;2023-09-18T14:25:04;1.85;;;1.33;;
66143;SDS011;52947;50.842;6.084;2023-09-18T14:27:33;4.38;;;1.67;;
66143;SDS011;52947;50.842;6.084;2023-09-18T14:30:03;4.25;;;1.40;;
66143;SDS011;52947;50.842;6.084;2023-09-18T14:32:34;5.70;;;1.50;;
66143;SDS011;52947;50.842;6.084;2023-09-18T14:35:04;5.50;;;1.60;;
66143;SDS011;52947;50.842;6.084;2023-09-18T14:37:35;3.33;;;1.40;;
66143;SDS011;52947;50.842;6.084;2023-09-18T14:40:04;4.72;;;1.50;;
66143;SDS011;52947;50.842;6.084;2023-09-18T14:42:34;2.53;;;1.70;;
66143;SDS011;52947;50.842;6.084;2023-09-18T14:45:04;7.05;;;1.65;;
66143;SDS011;52947;50.842;6.084;2023-09-18T14:47:32;2.90;;;1.50;;
66143;SDS011;52947;50.842;6.084;2023-09-18T14:50:01;3.70;;;1.30;;
66143;SDS011;52947;50.842;6.084;2023-09-18T14:52:28;3.40;;;1.60;;
66143;SDS011;52947;50.842;6.084;2023-09-18T14:54:57;3.53;;;1.50;;
66143;SDS011;52947;50.842;6.084;2023-09-18T14:57:26;2.90;;;1.73;;
66143;SDS011;52947;50.842;6.084;2023-09-18T14:59:54;5.00;;;1.90;;
66143;SDS011;52947;50.842;6.084;2023-09-18T15:02:23;2.70;;;1.25;;
66143;SDS011;52947;50.842;6.084;2023-09-18T15:04:56;2.58;;;1.33;;
66143;SDS011;52947;50.842;6.084;2023-09-18T15:07:25;3.47;;;1.70;;
66143;SDS011;52947;50.842;6.084;2023-09-18T15:09:53;3.78;;;1.48;;
66143;SDS011;52947;50.842;6.084;2023-09-18T15:12:21;4.75;;;1.58;;
66143;SDS011;52947;50.842;6.084;2023-09-18T15:14:49;2.45;;;1.45;;
66143;SDS011;52947;50.842;6.084;2023-09-18T15:17:17;2.63;;;1.50;;
66143;SDS011;52947;50.842;6.084;2023-09-18T15:19:47;1.77;;;1.17;;
66143;SDS011;52947;50.842;6.084;2023-09-18T15:22:21;4.30;;;1.60;;
66143;SDS011;52947;50.842;6.084;2023-09-18T15:24:49;2.00;;;1.60;;
66143;SDS011;52947;50.842;6.084;2023-09-18T15:27:17;5.88;;;1.25;;
66143;SDS011;52947;50.842;6.084;2023-09-18T15:29:45;3.50;;;1.73;;
66143;SDS011;52947;50.842;6.084;2023-09-18T15:32:13;2.30;;;1.40;;